This is the latest recevied weather packets stored in our database for station/object E22ZMG-4. If no packets are shown the sender has not sent any weather packets the latest 10 day(s).
| Time | Temp. | Humidity | Pressure | Rain* | Wind** | Luminosity | Snow |
|---|---|---|---|---|---|---|---|
| 1778039326 | 27.22° C | 38% | 976 hPa | - | - | 0 W/m² | - |
| 1778038701 | 27.78° C | 39% | 977 hPa | - | - | 0 W/m² | - |
| 1778038077 | 28.33° C | 41% | 977 hPa | - | - | 0 W/m² | - |
| 1778035484 | 31.11° C | 51% | 977 hPa | - | - | 0 W/m² | - |
| 1778034860 | 30.56° C | 51% | 977 hPa | - | - | 0 W/m² | - |
| 1778034235 | 30° C | 50% | 977 hPa | - | - | 0 W/m² | - |
| 1778033611 | 28.33° C | 49% | 977 hPa | - | - | 0 W/m² | - |
| 1778032986 | 28.33° C | 47% | 977 hPa | - | - | 0 W/m² | - |
| 1778032361 | 28.33° C | 51% | 977 hPa | - | - | 0 W/m² | - |
| 1778031737 | 28.33° C | 45% | 977 hPa | - | - | 0 W/m² | - |
| 1778031113 | 28.33° C | 44% | 977 hPa | - | - | 0 W/m² | - |
| 1778030489 | 28.89° C | 43% | 977 hPa | - | - | 0 W/m² | - |
| 1778029864 | 29.44° C | 47% | 977 hPa | - | - | 0 W/m² | - |
| 1778029240 | 30.56° C | 53% | 977 hPa | - | - | 0 W/m² | - |
| 1778028616 | 31.11° C | 56% | 977 hPa | - | - | 0 W/m² | - |
| 1778027991 | 30.56° C | 56% | 976 hPa | - | - | 0 W/m² | - |
| 1778027365 | 30.56° C | 56% | 976 hPa | - | - | 0 W/m² | - |
| 1778026741 | 30.56° C | 56% | 976 hPa | - | - | 0 W/m² | - |
| 1778026116 | 30° C | 56% | 976 hPa | - | - | 0 W/m² | - |
| 1778025749 | 30° C | 56% | 976 hPa | - | - | 0 W/m² | - |
| 1778025125 | 30° C | 56% | 976 hPa | - | - | 0 W/m² | - |
| 1778024500 | 30° C | 56% | 976 hPa | - | - | 0 W/m² | - |
| 1778023874 | 30° C | 56% | 976 hPa | - | - | 0 W/m² | - |
| 1778023249 | 30° C | 56% | 976 hPa | - | - | 0 W/m² | - |
| 1778022625 | 30° C | 56% | 976 hPa | - | - | 0 W/m² | - |
* Rain since midnight (hover to see other rain measurements)
** Current wind speed in m/s (hover to see current wind gust speed)